Time;durP1;ratioP1;P1;durP2;ratioP2;P2;SDS_P1;SDS_P2;PMS_P1;PMS_P2;Temp;Humidity;BMP_temperature;BMP_pressure;BME280_temperature;BME280_humidity;BME280_pressure;Samples;Min_cycle;Max_cycle;Signal;HPM_P1;HPM_P2
2023/04/19 00:01:25;;;;;;;11.47;8.83;;;;;;;;;;5055591;28;20442;-68
2023/04/19 00:03:52;;;;;;;10.17;9.17;;;;;;;;;;5054619;28;20572;-67
2023/04/19 00:06:19;;;;;;;10.47;8.83;;;;;;;;;;5054750;28;20529;-66
2023/04/19 00:08:48;;;;;;;10.30;9.30;;;;;;;;;;5054619;28;20829;-68
2023/04/19 00:11:15;;;;;;;9.43;8.43;;;;;;;;;;5054546;28;20475;-66
2023/04/19 00:13:42;;;;;;;12.33;9.27;;;;;;;;;;5054501;28;20533;-67
2023/04/19 00:16:10;;;;;;;11.90;9.17;;;;;;;;;;5054219;28;20443;-67
2023/04/19 00:18:37;;;;;;;9.93;8.57;;;;;;;;;;5053933;28;20458;-68
2023/04/19 00:21:05;;;;;;;11.27;8.80;;;;;;;;;;5055051;28;20451;-67
2023/04/19 00:23:32;;;;;;;10.93;8.90;;;;;;;;;;5054021;28;20442;-67
2023/04/19 00:26:03;;;;;;;10.97;9.07;;;;;;;;;;5054055;28;20456;-67
2023/04/19 00:28:30;;;;;;;10.03;8.53;;;;;;;;;;5053965;28;20425;-67
2023/04/19 00:30:58;;;;;;;11.53;9.73;;;;;;;;;;5053871;28;20485;-67
2023/04/19 00:33:25;;;;;;;11.70;8.83;;;;;;;;;;5053916;28;20455;-69
2023/04/19 00:35:52;;;;;;;12.90;8.70;;;;;;;;;;5054729;28;20525;-67
2023/04/19 00:38:19;;;;;;;10.13;8.57;;;;;;;;;;5054112;28;20533;-67
2023/04/19 00:40:46;;;;;;;12.10;8.80;;;;;;;;;;5054024;28;20453;-67
2023/04/19 00:43:18;;;;;;;11.00;8.73;;;;;;;;;;5054193;28;20445;-67
2023/04/19 00:45:46;;;;;;;8.90;7.97;;;;;;;;;;5053670;28;20925;-68
2023/04/19 00:48:14;;;;;;;12.00;8.33;;;;;;;;;;5053972;28;20446;-67
2023/04/19 00:50:41;;;;;;;10.60;8.00;;;;;;;;;;5053469;28;20477;-67
2023/04/19 00:53:08;;;;;;;11.57;8.33;;;;;;;;;;5054012;28;20447;-68
2023/04/19 00:55:37;;;;;;;9.80;8.80;;;;;;;;;;5053698;28;20468;-67
2023/04/19 00:58:06;;;;;;;11.03;8.80;;;;;;;;;;5053987;28;20770;-67
2023/04/19 01:00:34;;;;;;;9.00;7.97;;;;;;;;;;5053334;28;20455;-68
2023/04/19 01:03:02;;;;;;;11.10;9.90;;;;;;;;;;5053972;28;20484;-68
2023/04/19 01:05:29;;;;;;;11.37;10.03;;;;;;;;;;5054052;28;20509;-68
2023/04/19 01:07:56;;;;;;;12.67;9.37;;;;;;;;;;5053561;28;20446;-68
2023/04/19 01:10:24;;;;;;;19.13;9.50;;;;;;;;;;5053569;28;20478;-68
2023/04/19 01:12:51;;;;;;;11.23;10.07;;;;;;;;;;5054395;28;20447;-68
2023/04/19 01:15:18;;;;;;;12.07;9.13;;;;;;;;;;5053702;28;20450;-68
2023/04/19 01:17:47;;;;;;;10.50;9.03;;;;;;;;;;5054055;28;20438;-68
2023/04/19 01:20:14;;;;;;;15.03;10.97;;;;;;;;;;5053450;28;20536;-67
2023/04/19 01:22:42;;;;;;;17.20;10.87;;;;;;;;;;5053556;28;20443;-67
2023/04/19 01:25:10;;;;;;;9.17;8.37;;;;;;;;;;5053287;28;20443;-68
2023/04/19 01:27:37;;;;;;;11.63;10.27;;;;;;;;;;5053729;28;20451;-67
2023/04/19 01:30:05;;;;;;;8.37;7.57;;;;;;;;;;5053353;28;20442;-67
2023/04/19 01:32:32;;;;;;;9.40;7.63;;;;;;;;;;5053116;28;20490;-67
2023/04/19 01:34:59;;;;;;;10.57;8.57;;;;;;;;;;5053291;28;20437;-67
2023/04/19 01:37:26;;;;;;;12.50;7.80;;;;;;;;;;5053882;28;20442;-67
2023/04/19 01:39:55;;;;;;;8.67;7.87;;;;;;;;;;5053217;28;20442;-67
2023/04/19 01:42:22;;;;;;;8.77;7.17;;;;;;;;;;5053627;28;20500;-67
2023/04/19 01:44:49;;;;;;;9.37;7.50;;;;;;;;;;5053121;28;20437;-67
2023/04/19 01:47:16;;;;;;;7.47;6.50;;;;;;;;;;5053733;28;20532;-67
2023/04/19 01:49:43;;;;;;;8.40;7.60;;;;;;;;;;5053348;28;20458;-68
2023/04/19 01:52:10;;;;;;;8.13;7.27;;;;;;;;;;5053687;28;20485;-67
2023/04/19 01:54:38;;;;;;;7.53;5.90;;;;;;;;;;5053058;28;20439;-68
2023/04/19 01:57:06;;;;;;;8.53;6.40;;;;;;;;;;5053111;28;20442;-67
2023/04/19 01:59:33;;;;;;;7.37;6.67;;;;;;;;;;5052744;28;20925;-68
2023/04/19 02:02:01;;;;;;;6.63;5.93;;;;;;;;;;5053116;28;20446;-67
2023/04/19 02:04:28;;;;;;;7.80;6.77;;;;;;;;;;5053522;28;20480;-67
2023/04/19 02:06:55;;;;;;;7.10;6.30;;;;;;;;;;5052966;28;20446;-68
2023/04/19 02:09:22;;;;;;;7.03;6.40;;;;;;;;;;5052646;28;20473;-67
2023/04/19 02:11:49;;;;;;;8.73;7.07;;;;;;;;;;5052546;28;20473;-67
2023/04/19 02:14:18;;;;;;;8.33;7.07;;;;;;;;;;5052686;28;20205;-67
2023/04/19 02:16:45;;;;;;;7.17;6.30;;;;;;;;;;5052953;28;20803;-68
2023/04/19 02:19:12;;;;;;;10.47;6.30;;;;;;;;;;5052913;28;20464;-68
2023/04/19 02:21:40;;;;;;;13.77;6.87;;;;;;;;;;5052788;28;20460;-67
2023/04/19 02:24:07;;;;;;;8.50;6.80;;;;;;;;;;5053222;28;20451;-67
2023/04/19 02:26:34;;;;;;;7.33;6.27;;;;;;;;;;5052796;28;20441;-67
2023/04/19 02:29:01;;;;;;;10.80;8.27;;;;;;;;;;5053056;28;20446;-67
2023/04/19 02:31:30;;;;;;;9.07;7.67;;;;;;;;;;5052616;28;20485;-67
2023/04/19 02:33:57;;;;;;;8.83;7.93;;;;;;;;;;5052926;28;20449;-67
2023/04/19 02:36:25;;;;;;;9.70;8.67;;;;;;;;;;5052466;28;20441;-68
2023/04/19 02:38:52;;;;;;;8.90;6.77;;;;;;;;;;5052976;28;20450;-67
2023/04/19 02:41:19;;;;;;;11.10;8.50;;;;;;;;;;5052339;28;20452;-67
2023/04/19 02:43:46;;;;;;;8.02;6.45;;;;;;;;;;5055014;28;20455;-69
2023/04/19 02:46:14;;;;;;;7.53;6.80;;;;;;;;;;5056300;28;20555;-67
2023/04/19 02:48:42;;;;;;;9.37;6.80;;;;;;;;;;5055860;28;20452;-67
2023/04/19 02:51:15;;;;;;;10.10;7.13;;;;;;;;;;5056003;28;20503;-67
2023/04/19 02:53:42;;;;;;;8.33;6.73;;;;;;;;;;5056439;28;20426;-67
2023/04/19 02:56:10;;;;;;;8.10;6.90;;;;;;;;;;5056330;28;20460;-67
2023/04/19 02:58:37;;;;;;;8.40;7.43;;;;;;;;;;5056017;28;20446;-67
2023/04/19 03:01:04;;;;;;;10.07;6.80;;;;;;;;;;5055844;28;20200;-67
2023/04/19 03:03:31;;;;;;;9.77;7.57;;;;;;;;;;5055803;28;20472;-67
2023/04/19 03:06:00;;;;;;;10.87;7.10;;;;;;;;;;5055860;28;20444;-67
2023/04/19 03:08:27;;;;;;;7.70;7.00;;;;;;;;;;5055644;28;20935;-67
2023/04/19 03:10:54;;;;;;;7.83;7.00;;;;;;;;;;5055900;28;20572;-68
2023/04/19 03:13:21;;;;;;;6.97;6.27;;;;;;;;;;5056189;28;20462;-67
2023/04/19 03:15:48;;;;;;;9.40;8.15;;;;;;;;;;5055690;28;20442;-68
2023/04/19 03:18:16;;;;;;;7.37;6.60;;;;;;;;;;5055562;28;20648;-67
2023/04/19 03:20:44;;;;;;;8.53;6.77;;;;;;;;;;5055515;28;20442;-67
2023/04/19 03:23:12;;;;;;;7.07;6.37;;;;;;;;;;5056113;28;20438;-67
2023/04/19 03:25:39;;;;;;;13.10;7.13;;;;;;;;;;5055259;28;20945;-68
2023/04/19 03:28:06;;;;;;;7.83;5.77;;;;;;;;;;5055406;28;20453;-67
2023/04/19 03:30:34;;;;;;;8.17;6.43;;;;;;;;;;5055713;28;20521;-67
2023/04/19 03:33:01;;;;;;;8.40;7.10;;;;;;;;;;5055237;28;20449;-68
2023/04/19 03:35:29;;;;;;;6.47;5.87;;;;;;;;;;5055342;28;20457;-68
2023/04/19 03:37:56;;;;;;;7.25;6.05;;;;;;;;;;5055045;28;20488;-67
2023/04/19 03:40:25;;;;;;;6.30;5.70;;;;;;;;;;5055379;28;20247;-68
2023/04/19 03:42:52;;;;;;;15.77;5.83;;;;;;;;;;5055128;28;20612;-67
2023/04/19 03:45:19;;;;;;;6.70;6.00;;;;;;;;;;5055197;28;20438;-68
2023/04/19 03:47:47;;;;;;;6.30;4.93;;;;;;;;;;5055177;28;20199;-68
2023/04/19 03:50:14;;;;;;;5.90;5.30;;;;;;;;;;5067713;28;20441;-68
2023/04/19 03:52:41;;;;;;;7.07;5.33;;;;;;;;;;5074403;28;20472;-68
2023/04/19 03:55:09;;;;;;;7.28;5.00;;;;;;;;;;5074210;28;20512;-67
2023/04/19 03:57:38;;;;;;;5.38;4.85;;;;;;;;;;5074747;28;20202;-67
2023/04/19 04:00:07;;;;;;;6.60;5.87;;;;;;;;;;5074761;28;20194;-67
2023/04/19 04:02:35;;;;;;;6.00;5.40;;;;;;;;;;5074565;28;20451;-67
2023/04/19 04:05:02;;;;;;;6.27;5.70;;;;;;;;;;5074931;28;20434;-67
2023/04/19 04:07:29;;;;;;;6.97;4.70;;;;;;;;;;5074538;28;20451;-68
2023/04/19 04:09:56;;;;;;;6.97;5.20;;;;;;;;;;5074628;28;20524;-67
2023/04/19 04:12:23;;;;;;;5.80;5.00;;;;;;;;;;5074416;28;20576;-67
2023/04/19 04:14:53;;;;;;;6.30;5.50;;;;;;;;;;5074528;28;20527;-67
2023/04/19 04:17:20;;;;;;;7.43;5.10;;;;;;;;;;5074096;28;20667;-67
2023/04/19 04:19:47;;;;;;;7.40;5.20;;;;;;;;;;5084301;28;20446;-67
2023/04/19 04:22:15;;;;;;;5.23;4.70;;;;;;;;;;5094487;28;20933;-67
2023/04/19 04:24:42;;;;;;;5.60;5.07;;;;;;;;;;5094253;28;20439;-67
2023/04/19 04:27:10;;;;;;;6.23;5.40;;;;;;;;;;5094423;28;20533;-67
2023/04/19 04:29:37;;;;;;;12.48;5.65;;;;;;;;;;5094659;28;20802;-68
2023/04/19 04:32:09;;;;;;;9.63;5.30;;;;;;;;;;5094311;28;20217;-67
2023/04/19 04:34:36;;;;;;;5.90;5.30;;;;;;;;;;5094624;28;20204;-67
2023/04/19 04:37:03;;;;;;;5.88;5.05;;;;;;;;;;5094521;28;20603;-68
2023/04/19 04:39:33;;;;;;;7.22;5.15;;;;;;;;;;5094365;28;20195;-70
2023/04/19 04:42:01;;;;;;;5.85;5.25;;;;;;;;;;5094509;28;20190;-69
2023/04/19 04:44:28;;;;;;;5.00;4.50;;;;;;;;;;5094432;28;20193;-68
2023/04/19 04:46:55;;;;;;;7.85;5.13;;;;;;;;;;5094077;28;20247;-69
2023/04/19 04:49:24;;;;;;;7.03;5.17;;;;;;;;;;5093735;28;20196;-67
2023/04/19 04:51:51;;;;;;;5.72;5.20;;;;;;;;;;5094672;28;20475;-68
2023/04/19 04:54:18;;;;;;;11.88;5.43;;;;;;;;;;5093941;28;20195;-68
2023/04/19 04:56:45;;;;;;;8.70;5.65;;;;;;;;;;5094588;28;20189;-68
2023/04/19 04:59:12;;;;;;;7.60;4.95;;;;;;;;;;5093939;28;20194;-68
2023/04/19 05:01:40;;;;;;;8.73;5.28;;;;;;;;;;5093819;28;20296;-67
2023/04/19 05:04:07;;;;;;;5.35;4.57;;;;;;;;;;5093711;28;20221;-68
2023/04/19 05:06:35;;;;;;;5.28;4.70;;;;;;;;;;5093109;28;20201;-67
2023/04/19 05:09:03;;;;;;;4.90;3.95;;;;;;;;;;5093481;28;20735;-68
2023/04/19 05:11:30;;;;;;;5.22;4.18;;;;;;;;;;5093742;28;20224;-68
2023/04/19 05:13:57;;;;;;;4.60;4.18;;;;;;;;;;5093680;28;20189;-68
2023/04/19 05:16:24;;;;;;;10.98;4.40;;;;;;;;;;5093427;28;20194;-68
2023/04/19 05:18:51;;;;;;;5.63;4.65;;;;;;;;;;5093159;28;20193;-68
2023/04/19 05:21:18;;;;;;;6.38;4.15;;;;;;;;;;5093226;28;20192;-68
2023/04/19 05:23:47;;;;;;;4.10;3.65;;;;;;;;;;5093437;28;20193;-68
2023/04/19 05:26:15;;;;;;;4.10;3.70;;;;;;;;;;5093700;28;20216;-68
2023/04/19 05:28:42;;;;;;;4.57;4.10;;;;;;;;;;5093627;28;20196;-70
2023/04/19 05:31:09;;;;;;;6.05;4.05;;;;;;;;;;5093594;28;20279;-68
2023/04/19 05:33:37;;;;;;;5.72;3.45;;;;;;;;;;5093822;28;20223;-68
2023/04/19 05:36:04;;;;;;;6.07;4.13;;;;;;;;;;5093519;28;20204;-68
2023/04/19 05:38:31;;;;;;;4.85;4.35;;;;;;;;;;5093080;28;20193;-68
2023/04/19 05:41:00;;;;;;;6.28;4.63;;;;;;;;;;5093188;28;20197;-68
2023/04/19 05:43:27;;;;;;;6.65;3.92;;;;;;;;;;5093084;28;20201;-68
2023/04/19 05:45:54;;;;;;;4.97;3.97;;;;;;;;;;5093710;28;20205;-68
2023/04/19 05:48:21;;;;;;;10.32;5.65;;;;;;;;;;5093140;28;20194;-67
2023/04/19 05:50:51;;;;;;;8.40;6.20;;;;;;;;;;5093280;28;20202;-68
2023/04/19 05:53:18;;;;;;;6.68;5.10;;;;;;;;;;5093178;28;20245;-68
2023/04/19 05:55:46;;;;;;;4.85;3.60;;;;;;;;;;5093498;28;20190;-69
2023/04/19 05:58:15;;;;;;;4.03;3.63;;;;;;;;;;5093712;28;20541;-68
2023/04/19 06:00:42;;;;;;;5.43;4.10;;;;;;;;;;5093852;28;20197;-69
2023/04/19 06:03:10;;;;;;;11.10;4.28;;;;;;;;;;5092828;28;20482;-69
2023/04/19 06:05:39;;;;;;;4.90;3.88;;;;;;;;;;5093470;28;20695;-69
2023/04/19 06:08:06;;;;;;;5.22;3.90;;;;;;;;;;5093488;28;20280;-70
2023/04/19 06:10:33;;;;;;;4.90;3.40;;;;;;;;;;5093263;28;20558;-69
2023/04/19 06:13:00;;;;;;;6.00;3.45;;;;;;;;;;5092778;28;20221;-70
2023/04/19 06:15:29;;;;;;;7.43;3.78;;;;;;;;;;5093207;28;20190;-69
2023/04/19 06:17:56;;;;;;;7.70;5.15;;;;;;;;;;5095839;28;20204;-70
2023/04/19 06:20:24;;;;;;;4.68;3.97;;;;;;;;;;5097070;28;20189;-69
2023/04/19 06:22:51;;;;;;;3.72;3.42;;;;;;;;;;5096949;28;20282;-69
2023/04/19 06:25:18;;;;;;;5.28;4.00;;;;;;;;;;5097107;28;20189;-69
2023/04/19 06:27:45;;;;;;;4.57;3.65;;;;;;;;;;5096608;28;20653;-69
2023/04/19 06:30:13;;;;;;;8.13;3.40;;;;;;;;;;5096815;28;20224;-69
2023/04/19 06:32:41;;;;;;;4.28;3.88;;;;;;;;;;5097070;28;20231;-69
2023/04/19 06:35:09;;;;;;;4.68;3.55;;;;;;;;;;5096357;28;20276;-69
2023/04/19 06:37:36;;;;;;;7.20;4.30;;;;;;;;;;5097113;28;20289;-67
2023/04/19 06:40:05;;;;;;;6.60;3.72;;;;;;;;;;5096560;28;20189;-67
2023/04/19 06:42:33;;;;;;;4.22;3.67;;;;;;;;;;5096598;28;20252;-67
2023/04/19 06:45:00;;;;;;;7.13;4.20;;;;;;;;;;5096507;28;20197;-67
2023/04/19 06:47:27;;;;;;;8.95;4.15;;;;;;;;;;5096649;28;20197;-67
2023/04/19 06:49:56;;;;;;;6.32;3.67;;;;;;;;;;5096283;28;20203;-67
2023/04/19 06:52:23;;;;;;;5.65;3.40;;;;;;;;;;5095979;28;20224;-67
2023/04/19 06:54:50;;;;;;;5.60;3.78;;;;;;;;;;5096617;28;20194;-68
2023/04/19 06:57:17;;;;;;;4.65;3.65;;;;;;;;;;5096061;28;20201;-69
2023/04/19 06:59:45;;;;;;;4.47;3.63;;;;;;;;;;5096196;28;20545;-67
2023/04/19 07:02:12;;;;;;;3.85;3.55;;;;;;;;;;5096180;28;20201;-67
2023/04/19 07:04:39;;;;;;;3.15;2.90;;;;;;;;;;5096139;28;20221;-67
2023/04/19 07:07:08;;;;;;;4.57;3.03;;;;;;;;;;5095828;28;20193;-68
2023/04/19 07:09:35;;;;;;;4.57;2.85;;;;;;;;;;5095832;28;20193;-68
2023/04/19 07:12:02;;;;;;;4.90;3.50;;;;;;;;;;5095867;28;20217;-67
2023/04/19 07:14:29;;;;;;;4.03;3.15;;;;;;;;;;5095889;28;20526;-68
2023/04/19 07:16:56;;;;;;;6.20;3.60;;;;;;;;;;5095934;28;20835;-68
2023/04/19 07:19:24;;;;;;;3.95;2.58;;;;;;;;;;5095509;28;20934;-68
2023/04/19 07:21:52;;;;;;;8.52;3.53;;;;;;;;;;5096010;28;20198;-68
2023/04/19 07:24:20;;;;;;;5.35;4.45;;;;;;;;;;5096198;28;20534;-67
2023/04/19 07:26:47;;;;;;;5.43;4.22;;;;;;;;;;5095965;28;20190;-67
2023/04/19 07:29:14;;;;;;;7.95;3.30;;;;;;;;;;5094656;28;20283;-67
2023/04/19 07:31:42;;;;;;;4.25;3.53;;;;;;;;;;5095726;28;20228;-68
2023/04/19 07:34:09;;;;;;;3.55;3.03;;;;;;;;;;5095152;28;20221;-68
2023/04/19 07:36:37;;;;;;;3.38;2.97;;;;;;;;;;5095775;28;20204;-68
2023/04/19 07:39:05;;;;;;;3.15;2.85;;;;;;;;;;5095382;28;20216;-68
2023/04/19 07:41:33;;;;;;;5.10;3.30;;;;;;;;;;5095364;28;20207;-67
2023/04/19 07:44:00;;;;;;;6.00;2.90;;;;;;;;;;5094996;28;20209;-68
2023/04/19 07:46:28;;;;;;;4.93;3.20;;;;;;;;;;5095296;28;20436;-67
2023/04/19 07:48:55;;;;;;;6.90;3.13;;;;;;;;;;5095231;28;20233;-68
2023/04/19 07:51:23;;;;;;;3.08;2.75;;;;;;;;;;5095128;28;20439;-68
2023/04/19 07:53:50;;;;;;;8.40;3.47;;;;;;;;;;5095124;28;20213;-68
2023/04/19 07:56:18;;;;;;;7.63;2.80;;;;;;;;;;5095073;28;20216;-68
2023/04/19 07:58:47;;;;;;;5.75;3.92;;;;;;;;;;5095353;28;20201;-68
2023/04/19 08:01:15;;;;;;;4.68;3.97;;;;;;;;;;5094970;28;20189;-68
2023/04/19 08:03:42;;;;;;;3.20;2.90;;;;;;;;;;5095096;28;20221;-68
2023/04/19 08:06:09;;;;;;;2.95;2.65;;;;;;;;;;5094594;28;20204;-68
2023/04/19 08:08:37;;;;;;;3.30;2.60;;;;;;;;;;5094962;28;20198;-67
2023/04/19 08:11:05;;;;;;;2.80;2.60;;;;;;;;;;5094919;28;20448;-68
2023/04/19 08:13:32;;;;;;;2.20;2.00;;;;;;;;;;5095329;28;20478;-68
2023/04/19 08:16:00;;;;;;;3.47;2.45;;;;;;;;;;5094699;28;20454;-68
2023/04/19 08:18:28;;;;;;;3.37;3.07;;;;;;;;;;5094754;28;20302;-68
2023/04/19 08:20:55;;;;;;;3.00;2.80;;;;;;;;;;5094696;28;20440;-68
2023/04/19 08:23:23;;;;;;;2.80;2.60;;;;;;;;;;5094696;28;20217;-68
2023/04/19 08:25:50;;;;;;;5.50;2.87;;;;;;;;;;5094145;28;20449;-68
2023/04/19 08:28:17;;;;;;;7.43;3.10;;;;;;;;;;5095301;28;20436;-68
2023/04/19 08:30:45;;;;;;;3.80;2.90;;;;;;;;;;5094119;28;20440;-69
2023/04/19 08:33:13;;;;;;;5.90;3.10;;;;;;;;;;5094131;28;20218;-68
2023/04/19 08:35:40;;;;;;;2.53;2.33;;;;;;;;;;5093922;28;20440;-68
2023/04/19 08:38:08;;;;;;;2.83;2.63;;;;;;;;;;5094294;28;20439;-68
2023/04/19 08:40:36;;;;;;;6.40;3.40;;;;;;;;;;5093808;28;20450;-68
2023/04/19 08:43:06;;;;;;;5.80;3.10;;;;;;;;;;5094517;28;20448;-68
2023/04/19 08:45:34;;;;;;;3.50;3.20;;;;;;;;;;5094187;28;20189;-68
2023/04/19 08:48:02;;;;;;;3.10;2.80;;;;;;;;;;5093774;28;20196;-68
2023/04/19 08:50:31;;;;;;;4.83;4.00;;;;;;;;;;5094310;28;20197;-68
2023/04/19 08:53:00;;;;;;;3.40;3.20;;;;;;;;;;5093615;28;20470;-68
2023/04/19 08:55:28;;;;;;;4.83;3.80;;;;;;;;;;5093819;28;20437;-68
2023/04/19 08:57:57;;;;;;;14.47;8.70;;;;;;;;;;5093603;28;20477;-68
2023/04/19 09:00:24;;;;;;;4.93;3.13;;;;;;;;;;5093411;28;20447;-68
2023/04/19 09:02:53;;;;;;;3.15;2.75;;;;;;;;;;5093565;28;21615;-68
2023/04/19 09:05:20;;;;;;;5.33;2.93;;;;;;;;;;5093490;28;20235;-68
2023/04/19 09:07:49;;;;;;;5.37;2.80;;;;;;;;;;5093811;28;20504;-67
2023/04/19 09:10:17;;;;;;;4.47;3.37;;;;;;;;;;5093327;28;20455;-70
2023/04/19 09:12:44;;;;;;;4.50;2.87;;;;;;;;;;5093354;28;20476;-67
2023/04/19 09:15:11;;;;;;;3.97;3.37;;;;;;;;;;5093690;28;20435;-68
2023/04/19 09:17:39;;;;;;;7.77;4.63;;;;;;;;;;5093480;28;20809;-67
2023/04/19 09:20:07;;;;;;;3.20;2.67;;;;;;;;;;5093290;28;20452;-67
2023/04/19 09:22:34;;;;;;;7.77;3.63;;;;;;;;;;5093632;28;20448;-68
2023/04/19 09:25:03;;;;;;;6.20;3.20;;;;;;;;;;5093190;28;20440;-68
2023/04/19 09:27:31;;;;;;;5.80;3.03;;;;;;;;;;5093491;28;20518;-68
2023/04/19 09:29:59;;;;;;;3.00;2.70;;;;;;;;;;5093230;28;20454;-67
2023/04/19 09:32:27;;;;;;;4.97;3.17;;;;;;;;;;5093570;28;20445;-67
2023/04/19 09:34:55;;;;;;;4.73;4.33;;;;;;;;;;5093960;28;20447;-68
2023/04/19 09:37:22;;;;;;;3.50;3.20;;;;;;;;;;5093537;28;20468;-67
2023/04/19 09:39:49;;;;;;;12.50;3.10;;;;;;;;;;5093501;28;20445;-67
2023/04/19 09:42:19;;;;;;;6.30;3.40;;;;;;;;;;5093568;28;20530;-68
2023/04/19 09:45:01;;;;;;;3.57;3.23;;;;;;;;;;5093515;28;20443;-67
2023/04/19 09:47:30;;;;;;;4.00;3.03;;;;;;;;;;5091123;28;20456;-68
2023/04/19 09:50:07;;;;;;;3.90;3.60;;;;;;;;;;5093452;28;20451;-67
2023/04/19 09:52:34;;;;;;;4.83;3.30;;;;;;;;;;5095145;28;20958;-67
2023/04/19 09:55:03;;;;;;;3.93;3.40;;;;;;;;;;5097194;28;20444;-68
2023/04/19 09:57:32;;;;;;;3.60;2.67;;;;;;;;;;5097504;28;20453;-68
2023/04/19 09:59:59;;;;;;;7.40;3.33;;;;;;;;;;5097376;28;20447;-68
2023/04/19 10:02:27;;;;;;;3.40;3.10;;;;;;;;;;5097119;28;20454;-68
2023/04/19 10:04:56;;;;;;;3.90;3.43;;;;;;;;;;5097132;28;21011;-68
2023/04/19 10:07:23;;;;;;;3.53;3.23;;;;;;;;;;5097174;28;20489;-68
2023/04/19 10:09:50;;;;;;;3.63;3.33;;;;;;;;;;5096800;28;20930;-68
2023/04/19 10:12:18;;;;;;;3.80;3.40;;;;;;;;;;5097107;28;20458;-68
2023/04/19 10:14:46;;;;;;;11.90;3.40;;;;;;;;;;5096707;28;20992;-68
2023/04/19 10:17:14;;;;;;;3.90;3.20;;;;;;;;;;5096935;28;20443;-68
2023/04/19 10:19:41;;;;;;;5.17;3.10;;;;;;;;;;5096873;28;20536;-68
2023/04/19 10:22:09;;;;;;;4.03;3.47;;;;;;;;;;5096976;28;20518;-68
2023/04/19 10:24:37;;;;;;;4.70;3.40;;;;;;;;;;5096502;28;20451;-68
2023/04/19 10:27:10;;;;;;;10.10;4.20;;;;;;;;;;5096720;28;20457;-69
2023/04/19 10:29:57;;;;;;;5.23;3.33;;;;;;;;;;5096805;28;20966;-68
2023/04/19 10:32:25;;;;;;;5.70;4.10;;;;;;;;;;5096900;28;20444;-69
2023/04/19 10:34:53;;;;;;;4.03;3.63;;;;;;;;;;5096686;28;20475;-68
2023/04/19 10:37:23;;;;;;;4.03;3.57;;;;;;;;;;5096208;28;20939;-68
2023/04/19 10:39:51;;;;;;;6.87;3.90;;;;;;;;;;5096285;28;20451;-69
2023/04/19 10:42:18;;;;;;;8.93;4.60;;;;;;;;;;5096707;28;20438;-68
2023/04/19 10:45:00;;;;;;;5.50;3.70;;;;;;;;;;5096954;28;20448;-68
2023/04/19 10:47:42;;;;;;;6.03;4.00;;;;;;;;;;5095969;28;20453;-69
2023/04/19 10:50:11;;;;;;;4.90;3.80;;;;;;;;;;5096621;28;20442;-68
2023/04/19 10:52:38;;;;;;;4.80;3.50;;;;;;;;;;5096236;28;20458;-69
2023/04/19 10:55:06;;;;;;;6.60;5.80;;;;;;;;;;5096245;28;20478;-69
2023/04/19 10:57:48;;;;;;;12.70;3.83;;;;;;;;;;5096010;28;20815;-69
2023/04/19 11:00:24;;;;;;;4.50;4.10;;;;;;;;;;5096124;28;20455;-69
2023/04/19 11:02:51;;;;;;;4.30;3.90;;;;;;;;;;5095535;28;20472;-69
2023/04/19 11:05:20;;;;;;;6.10;4.17;;;;;;;;;;5096117;28;20444;-69
2023/04/19 11:07:47;;;;;;;7.63;3.83;;;;;;;;;;5095976;28;20800;-68
2023/04/19 11:10:28;;;;;;;5.40;3.53;;;;;;;;;;5096046;28;20443;-69
2023/04/19 11:12:55;;;;;;;3.77;3.40;;;;;;;;;;5095868;28;20440;-69
2023/04/19 11:15:23;;;;;;;6.30;3.67;;;;;;;;;;5095517;28;20477;-70
2023/04/19 11:17:51;;;;;;;5.67;4.27;;;;;;;;;;5095489;28;20436;-69
2023/04/19 11:20:23;;;;;;;5.87;3.80;;;;;;;;;;5096361;28;20441;-69
2023/04/19 11:22:50;;;;;;;5.27;3.90;;;;;;;;;;5095513;28;20425;-69
2023/04/19 11:25:19;;;;;;;5.90;3.77;;;;;;;;;;5095428;28;20448;-68
2023/04/19 11:27:46;;;;;;;5.57;4.30;;;;;;;;;;5095562;28;20450;-69
2023/04/19 11:30:15;;;;;;;3.60;3.30;;;;;;;;;;5095397;28;20938;-69
2023/04/19 11:32:47;;;;;;;4.83;3.70;;;;;;;;;;5095353;28;20473;-69
2023/04/19 11:35:14;;;;;;;5.30;3.83;;;;;;;;;;5095491;28;20486;-69
2023/04/19 11:37:42;;;;;;;4.53;3.87;;;;;;;;;;5095125;28;20516;-69
2023/04/19 11:40:10;;;;;;;3.60;3.00;;;;;;;;;;5095487;28;20452;-68
2023/04/19 11:42:37;;;;;;;5.70;4.20;;;;;;;;;;5095324;28;20498;-69
2023/04/19 11:45:05;;;;;;;5.00;4.23;;;;;;;;;;5095389;28;20456;-69
2023/04/19 11:47:33;;;;;;;6.63;3.50;;;;;;;;;;5095195;28;20524;-69
2023/04/19 11:50:15;;;;;;;4.20;3.27;;;;;;;;;;5095294;28;20441;-69
2023/04/19 11:52:49;;;;;;;4.10;3.70;;;;;;;;;;5095018;28;20455;-69
2023/04/19 11:55:19;;;;;;;5.63;3.83;;;;;;;;;;5095466;28;20552;-69
2023/04/19 11:57:48;;;;;;;5.00;3.30;;;;;;;;;;5095136;28;20445;-69
2023/04/19 12:00:16;;;;;;;3.50;3.30;;;;;;;;;;5095016;28;20463;-69
2023/04/19 12:02:44;;;;;;;3.73;2.90;;;;;;;;;;5094364;28;20780;-69
2023/04/19 12:05:11;;;;;;;5.57;3.40;;;;;;;;;;5094973;28;20429;-69
2023/04/19 12:07:57;;;;;;;7.47;3.40;;;;;;;;;;5094665;28;20957;-69
2023/04/19 12:10:26;;;;;;;3.37;3.07;;;;;;;;;;5095314;28;20433;-69
2023/04/19 12:12:53;;;;;;;4.87;3.27;;;;;;;;;;5094705;28;20474;-69
2023/04/19 12:15:20;;;;;;;3.70;3.40;;;;;;;;;;5094901;28;20477;-69
2023/04/19 12:17:57;;;;;;;5.70;3.80;;;;;;;;;;5094361;28;20463;-69
2023/04/19 12:20:31;;;;;;;4.83;3.37;;;;;;;;;;5094409;28;20447;-69
2023/04/19 12:22:59;;;;;;;5.53;3.70;;;;;;;;;;5094298;28;21001;-69
2023/04/19 12:25:30;;;;;;;5.93;3.73;;;;;;;;;;5094613;28;20846;-69
2023/04/19 12:27:57;;;;;;;5.60;3.57;;;;;;;;;;5094188;28;20908;-69
2023/04/19 12:30:25;;;;;;;4.00;3.60;;;;;;;;;;5094521;28;20439;-69
2023/04/19 12:32:54;;;;;;;8.30;3.90;;;;;;;;;;5094407;28;21006;-69
2023/04/19 12:35:22;;;;;;;9.40;4.03;;;;;;;;;;5094290;28;20931;-69
2023/04/19 12:37:49;;;;;;;6.70;3.70;;;;;;;;;;5094282;28;20450;-68
2023/04/19 12:40:16;;;;;;;3.30;2.67;;;;;;;;;;5094281;28;20446;-69
2023/04/19 12:42:45;;;;;;;4.90;3.47;;;;;;;;;;5094352;28;20452;-69
2023/04/19 12:45:13;;;;;;;5.77;3.77;;;;;;;;;;5093888;28;20968;-69
2023/04/19 12:47:40;;;;;;;7.13;3.83;;;;;;;;;;5094161;28;20953;-69
2023/04/19 12:50:08;;;;;;;3.73;2.83;;;;;;;;;;5094277;28;20444;-68
2023/04/19 12:52:40;;;;;;;5.50;3.40;;;;;;;;;;5093533;28;20445;-73
2023/04/19 12:55:07;;;;;;;5.67;4.20;;;;;;;;;;5094304;28;20212;-68
2023/04/19 12:57:34;;;;;;;7.20;4.10;;;;;;;;;;5093578;28;20438;-69
2023/04/19 13:00:04;;;;;;;3.87;3.30;;;;;;;;;;5093720;28;20446;-68
2023/04/19 13:02:31;;;;;;;5.43;3.17;;;;;;;;;;5093520;28;20484;-69
2023/04/19 13:04:59;;;;;;;5.20;3.50;;;;;;;;;;5093770;28;20525;-68
2023/04/19 13:07:27;;;;;;;3.53;3.10;;;;;;;;;;5093758;28;20445;-68
2023/04/19 13:09:54;;;;;;;4.00;3.60;;;;;;;;;;5082337;28;20874;-69
2023/04/19 13:12:22;;;;;;;3.40;3.10;;;;;;;;;;5072803;28;20485;-69
2023/04/19 13:14:51;;;;;;;3.27;2.90;;;;;;;;;;5072568;28;20922;-70
2023/04/19 13:17:19;;;;;;;6.43;3.57;;;;;;;;;;5072903;28;20444;-70
2023/04/19 13:19:46;;;;;;;5.00;3.90;;;;;;;;;;5072888;28;20446;-69
2023/04/19 13:22:14;;;;;;;4.40;3.67;;;;;;;;;;5073183;28;20483;-69
2023/04/19 13:24:41;;;;;;;4.30;3.93;;;;;;;;;;5073199;28;20487;-68
2023/04/19 13:27:08;;;;;;;4.40;3.90;;;;;;;;;;5072499;28;20443;-68
2023/04/19 13:29:35;;;;;;;6.90;3.30;;;;;;;;;;5072876;28;20454;-69
2023/04/19 13:32:06;;;;;;;4.80;3.20;;;;;;;;;;5073415;28;20464;-68
2023/04/19 13:34:34;;;;;;;5.70;3.40;;;;;;;;;;5072808;28;20481;-69
2023/04/19 13:37:01;;;;;;;4.60;3.90;;;;;;;;;;5073449;28;20442;-69
2023/04/19 13:39:29;;;;;;;4.27;3.10;;;;;;;;;;5072874;28;20451;-68
2023/04/19 13:41:56;;;;;;;3.93;3.10;;;;;;;;;;5072982;28;20451;-69
2023/04/19 13:44:24;;;;;;;4.23;2.93;;;;;;;;;;5073345;28;20529;-69
2023/04/19 13:46:51;;;;;;;9.40;3.53;;;;;;;;;;5072735;28;20477;-69
2023/04/19 13:49:19;;;;;;;9.33;2.90;;;;;;;;;;5072907;28;20443;-69
2023/04/19 13:51:47;;;;;;;6.80;3.50;;;;;;;;;;5073460;28;20620;-69
2023/04/19 13:54:16;;;;;;;3.60;3.30;;;;;;;;;;5072998;28;20839;-69
2023/04/19 13:56:43;;;;;;;6.30;3.50;;;;;;;;;;5072479;28;20451;-69
2023/04/19 13:59:10;;;;;;;7.10;3.10;;;;;;;;;;5072784;28;20530;-69
2023/04/19 14:01:37;;;;;;;3.73;3.43;;;;;;;;;;5072999;28;20495;-69
2023/04/19 14:04:05;;;;;;;6.33;2.50;;;;;;;;;;5072553;28;20471;-69
2023/04/19 14:06:32;;;;;;;4.23;2.97;;;;;;;;;;5072637;28;20447;-68
2023/04/19 14:09:01;;;;;;;3.40;2.70;;;;;;;;;;5072511;28;20450;-68
2023/04/19 14:11:28;;;;;;;2.43;2.23;;;;;;;;;;5072621;28;20459;-68
2023/04/19 14:13:55;;;;;;;6.63;2.70;;;;;;;;;;5072957;28;20448;-69
2023/04/19 14:16:24;;;;;;;4.87;2.47;;;;;;;;;;5093008;28;20489;-69
2023/04/19 14:18:51;;;;;;;4.03;2.57;;;;;;;;;;5093249;28;20446;-68
2023/04/19 14:21:18;;;;;;;3.50;2.90;;;;;;;;;;5079072;28;20436;-68
2023/04/19 14:23:51;;;;;;;7.07;2.63;;;;;;;;;;5072829;28;20447;-68
2023/04/19 14:26:20;;;;;;;2.83;2.63;;;;;;;;;;5072779;28;20435;-68
2023/04/19 14:28:47;;;;;;;3.83;2.47;;;;;;;;;;5072220;28;20529;-68
2023/04/19 14:31:14;;;;;;;3.37;3.07;;;;;;;;;;5072575;28;20462;-68
2023/04/19 14:33:41;;;;;;;7.60;2.93;;;;;;;;;;5072881;28;20917;-68
2023/04/19 14:36:08;;;;;;;3.03;2.70;;;;;;;;;;5072646;28;20524;-69
2023/04/19 14:38:36;;;;;;;3.67;2.50;;;;;;;;;;5074164;28;20454;-68
2023/04/19 14:41:03;;;;;;;2.77;2.57;;;;;;;;;;5076203;28;20440;-69
2023/04/19 14:43:32;;;;;;;2.97;2.47;;;;;;;;;;5076122;28;20447;-68
2023/04/19 14:45:59;;;;;;;3.40;2.47;;;;;;;;;;5093870;28;20446;-69